createdAt,value
2023-03-02T00:00:48.859Z,30.12
2023-03-02T00:02:02.109Z,30.30
2023-03-02T00:03:05.530Z,28.08
2023-03-02T00:04:11.385Z,28.63
2023-03-02T00:05:14.521Z,28.58
2023-03-02T00:06:16.932Z,28.55
2023-03-02T00:07:26.245Z,29.43
2023-03-02T00:08:28.960Z,30.33
2023-03-02T00:09:31.042Z,28.37
2023-03-02T00:10:34.308Z,29.70
2023-03-02T00:11:39.050Z,29.37
2023-03-02T00:12:41.034Z,29.85
2023-03-02T00:13:43.689Z,31.15
2023-03-02T00:14:45.555Z,29.35
2023-03-02T00:15:47.517Z,30.13
2023-03-02T00:16:49.716Z,29.75
2023-03-02T00:17:51.629Z,30.92
2023-03-02T00:18:54.062Z,32.02
2023-03-02T00:20:11.458Z,31.25
2023-03-02T00:21:15.626Z,30.70
2023-03-02T00:22:19.158Z,30.83
2023-03-02T00:23:21.146Z,31.68
2023-03-02T00:24:22.956Z,31.17
2023-03-02T00:25:24.824Z,30.95
2023-03-02T00:26:26.764Z,31.20
2023-03-02T00:27:30.036Z,31.18
2023-03-02T00:28:34.039Z,32.07
2023-03-02T00:29:35.956Z,32.32
2023-03-02T00:30:39.006Z,34.23
2023-03-02T00:31:40.891Z,33.37
2023-03-02T00:32:42.729Z,31.03
2023-03-02T00:33:44.514Z,32.38
2023-03-02T00:34:46.242Z,33.72
2023-03-02T00:35:48.191Z,32.62
2023-03-02T00:36:50.337Z,31.48
2023-03-02T00:37:52.350Z,31.58
2023-03-02T00:38:55.441Z,32.17
2023-03-02T00:39:57.226Z,32.10
2023-03-02T00:40:59.452Z,31.52
2023-03-02T00:42:01.244Z,32.18
2023-03-02T00:43:03.189Z,32.23
2023-03-02T00:44:05.017Z,31.60
2023-03-02T00:45:07.583Z,31.27
2023-03-02T00:46:15.103Z,31.58
2023-03-02T00:47:17.086Z,31.33
2023-03-02T00:48:19.715Z,30.55
2023-03-02T00:49:21.520Z,30.82
2023-03-02T00:50:23.845Z,31.13
2023-03-02T00:51:25.988Z,30.12
2023-03-02T00:52:30.358Z,30.13
2023-03-02T00:53:32.942Z,30.63
2023-03-02T00:54:34.673Z,31.00
2023-03-02T00:55:37.278Z,29.38
2023-03-02T00:56:39.247Z,30.77
2023-03-02T00:57:41.048Z,30.28
2023-03-02T00:58:43.379Z,31.42
2023-03-02T00:59:45.244Z,31.27
2023-03-02T01:00:47.910Z,31.20
2023-03-02T01:01:57.962Z,31.45
2023-03-02T01:03:00.148Z,31.60
2023-03-02T01:04:02.196Z,30.25
2023-03-02T01:05:04.274Z,31.00
2023-03-02T01:06:17.540Z,31.42
2023-03-02T01:07:21.209Z,33.75
2023-03-02T01:08:25.132Z,32.68
2023-03-02T01:09:27.513Z,32.12
2023-03-02T01:10:32.562Z,32.53
2023-03-02T01:11:34.504Z,31.73
2023-03-02T01:12:36.323Z,31.38
2023-03-02T01:13:38.097Z,31.53
2023-03-02T01:14:42.736Z,32.87
2023-03-02T01:15:44.643Z,31.08
2023-03-02T01:16:47.492Z,32.48
2023-03-02T01:17:49.337Z,30.67
2023-03-02T01:18:51.479Z,29.55
2023-03-02T01:19:54.080Z,30.57
2023-03-02T01:21:10.801Z,31.00
2023-03-02T01:22:12.672Z,30.70
2023-03-02T01:23:14.521Z,31.48
2023-03-02T01:24:16.339Z,29.83
2023-03-02T01:25:18.238Z,29.67
2023-03-02T01:26:20.092Z,31.40
2023-03-02T01:27:22.241Z,31.23
2023-03-02T01:28:24.084Z,30.90
2023-03-02T01:29:26.072Z,31.28
2023-03-02T01:30:28.280Z,31.35
2023-03-02T01:31:30.306Z,31.65
2023-03-02T01:32:32.251Z,32.12
2023-03-02T01:33:34.217Z,30.45
2023-03-02T01:34:36.050Z,31.42
2023-03-02T01:35:37.924Z,31.60
2023-03-02T01:36:40.064Z,31.45
2023-03-02T01:37:41.898Z,32.53
2023-03-02T01:38:44.260Z,31.50
2023-03-02T01:39:47.156Z,30.82
2023-03-02T01:40:49.764Z,32.25
2023-03-02T01:41:53.218Z,31.85
2023-03-02T01:42:57.952Z,30.87
2023-03-02T01:43:59.769Z,31.22
2023-03-02T01:45:01.826Z,30.53
2023-03-02T01:46:10.767Z,31.03
2023-03-02T01:47:39.293Z,30.65
2023-03-02T01:48:53.329Z,33.67
2023-03-02T01:50:15.369Z,30.50
2023-03-02T01:51:21.900Z,31.60
2023-03-02T01:52:24.124Z,32.52
2023-03-02T01:53:28.764Z,31.22
2023-03-02T01:54:30.656Z,32.03
2023-03-02T01:55:34.578Z,33.72
2023-03-02T01:56:40.204Z,33.47
2023-03-02T01:57:46.123Z,31.87
2023-03-02T01:58:52.593Z,32.05
2023-03-02T01:59:59.610Z,31.33
2023-03-02T02:01:02.205Z,32.00
2023-03-02T02:02:08.537Z,32.37
2023-03-02T02:03:21.129Z,31.58
2023-03-02T02:04:25.143Z,31.12
2023-03-02T02:05:28.219Z,31.72
2023-03-02T02:06:48.999Z,31.88
2023-03-02T02:07:51.758Z,31.70
2023-03-02T02:08:57.077Z,31.82
2023-03-02T02:09:59.384Z,32.55
2023-03-02T02:11:05.944Z,31.98
2023-03-02T02:12:16.899Z,31.08
2023-03-02T02:13:18.781Z,32.28
2023-03-02T02:14:20.821Z,31.33
2023-03-02T02:15:23.122Z,31.77
2023-03-02T02:16:26.482Z,31.30
2023-03-02T02:17:31.307Z,31.97
2023-03-02T02:18:35.141Z,30.98
2023-03-02T02:19:55.239Z,31.72
2023-03-02T02:20:58.171Z,31.92
2023-03-02T02:22:00.421Z,31.25
2023-03-02T02:23:08.174Z,31.53
2023-03-02T02:24:21.926Z,31.57
2023-03-02T02:25:33.261Z,31.38
2023-03-02T02:26:50.517Z,30.58
2023-03-02T02:27:52.574Z,31.25
2023-03-02T02:29:12.372Z,31.57
2023-03-02T02:30:15.602Z,30.55
2023-03-02T02:31:26.770Z,29.57
2023-03-02T02:32:33.660Z,31.05
2023-03-02T02:33:37.406Z,31.65
2023-03-02T02:35:03.296Z,33.32
2023-03-02T02:36:08.783Z,30.95
2023-03-02T02:37:24.311Z,29.78
2023-03-02T02:38:27.805Z,30.00
2023-03-02T02:39:35.820Z,32.08
2023-03-02T02:40:55.736Z,30.27
2023-03-02T02:42:00.877Z,31.45
2023-03-02T02:43:02.998Z,30.12
2023-03-02T02:44:05.312Z,29.97
2023-03-02T02:45:21.805Z,28.88
2023-03-02T02:46:23.913Z,30.28
2023-03-02T02:47:26.242Z,31.57
2023-03-02T02:48:32.604Z,30.83
2023-03-02T02:49:37.411Z,31.35
2023-03-02T02:50:39.349Z,31.10
2023-03-02T02:51:41.307Z,30.82
2023-03-02T02:52:45.190Z,29.85
2023-03-02T02:53:48.745Z,30.50
2023-03-02T02:54:54.876Z,30.13
2023-03-02T02:55:58.657Z,30.52
2023-03-02T02:57:02.890Z,30.43
2023-03-02T02:58:21.146Z,30.72
2023-03-02T02:59:28.938Z,30.37
2023-03-02T03:00:30.749Z,31.17
2023-03-02T03:01:33.967Z,31.43
2023-03-02T03:02:43.376Z,30.42
2023-03-02T03:04:02.462Z,29.67
2023-03-02T03:05:04.654Z,29.62
2023-03-02T03:06:08.826Z,31.27
2023-03-02T03:07:15.394Z,30.63
2023-03-02T03:08:47.455Z,31.38
2023-03-02T03:09:57.988Z,30.93
2023-03-02T03:11:01.392Z,31.92
2023-03-02T03:12:11.677Z,31.60
2023-03-02T03:13:13.623Z,30.92
2023-03-02T03:14:18.361Z,30.68
2023-03-02T03:15:20.724Z,31.05
2023-03-02T03:16:24.100Z,32.52
2023-03-02T03:17:26.059Z,31.45
2023-03-02T03:18:31.047Z,31.47
2023-03-02T03:19:33.527Z,31.70
2023-03-02T03:20:35.314Z,31.13
2023-03-02T03:21:37.254Z,31.65
2023-03-02T03:22:39.105Z,32.23
2023-03-02T03:23:40.974Z,32.28
2023-03-02T03:24:44.022Z,30.25
2023-03-02T03:25:45.814Z,31.28
2023-03-02T03:26:48.082Z,30.95
2023-03-02T03:27:49.854Z,30.70
2023-03-02T03:28:51.969Z,31.12
2023-03-02T03:29:53.821Z,29.77
2023-03-02T03:30:56.301Z,29.53
2023-03-02T03:31:59.559Z,28.63
2023-03-02T03:33:01.437Z,29.15
2023-03-02T03:34:04.269Z,29.10
2023-03-02T03:35:08.860Z,29.73
2023-03-02T03:36:10.682Z,30.20
2023-03-02T03:37:17.568Z,31.48
2023-03-02T03:38:20.449Z,30.32
2023-03-02T03:39:22.407Z,29.60
2023-03-02T03:40:24.606Z,31.25
2023-03-02T03:41:26.711Z,31.18
2023-03-02T03:42:28.505Z,31.53
2023-03-02T03:43:30.362Z,32.60
2023-03-02T03:44:32.559Z,32.12
2023-03-02T03:45:34.530Z,32.28
2023-03-02T03:46:36.673Z,31.97
2023-03-02T03:47:38.692Z,31.12
2023-03-02T03:48:40.783Z,31.98
2023-03-02T03:49:42.594Z,31.78
2023-03-02T03:50:45.344Z,32.28
2023-03-02T03:51:47.582Z,31.40
2023-03-02T03:52:49.379Z,32.18
2023-03-02T03:54:00.242Z,33.03
2023-03-02T03:55:02.460Z,32.92
2023-03-02T03:56:04.526Z,32.98
2023-03-02T03:57:06.739Z,33.55
2023-03-02T03:58:08.681Z,33.58
2023-03-02T03:59:14.444Z,32.42
2023-03-02T04:00:19.515Z,33.50
2023-03-02T04:01:21.394Z,34.22
2023-03-02T04:02:23.561Z,33.80
2023-03-02T04:03:25.685Z,32.07
2023-03-02T04:04:35.568Z,34.02
2023-03-02T04:05:37.461Z,35.35
2023-03-02T04:06:39.454Z,33.95
2023-03-02T04:07:41.370Z,34.57
2023-03-02T04:08:44.306Z,36.27
2023-03-02T04:09:46.308Z,35.20
2023-03-02T04:10:48.152Z,37.55
2023-03-02T04:11:52.296Z,41.18
2023-03-02T04:12:54.449Z,40.25
2023-03-02T04:13:56.265Z,42.73
2023-03-02T04:14:58.360Z,43.15
2023-03-02T04:16:00.310Z,43.18
2023-03-02T04:17:05.393Z,44.22
2023-03-02T04:18:07.500Z,50.20
2023-03-02T04:19:10.344Z,66.85
2023-03-02T04:20:16.814Z,72.83
2023-03-02T04:21:23.860Z,74.13
2023-03-02T04:22:26.598Z,69.60
2023-03-02T04:23:28.485Z,71.42
2023-03-02T04:24:30.342Z,71.87
2023-03-02T04:25:32.215Z,67.80
2023-03-02T04:26:35.691Z,57.83
2023-03-02T04:27:37.574Z,46.77
2023-03-02T04:28:39.713Z,44.03
2023-03-02T04:29:41.816Z,39.42
2023-03-02T04:30:43.897Z,41.80
2023-03-02T04:31:45.887Z,49.78
2023-03-02T04:32:47.713Z,52.35
2023-03-02T04:33:49.590Z,50.78
2023-03-02T04:34:51.394Z,49.77
2023-03-02T04:35:54.663Z,47.08
2023-03-02T04:36:56.957Z,46.90
2023-03-02T04:37:59.194Z,46.50
2023-03-02T04:39:02.546Z,45.30
2023-03-02T04:40:04.687Z,47.20
2023-03-02T04:41:06.689Z,45.05
2023-03-02T04:42:08.569Z,43.88
2023-03-02T04:43:10.366Z,43.32
2023-03-02T04:44:13.052Z,43.97
2023-03-02T04:45:14.889Z,44.10
2023-03-02T04:46:23.931Z,44.57
2023-03-02T04:47:26.979Z,43.78
2023-03-02T04:48:29.665Z,41.63
2023-03-02T04:49:31.733Z,42.38
2023-03-02T04:50:34.132Z,41.32
2023-03-02T04:51:41.450Z,41.78
2023-03-02T04:52:43.391Z,39.93
2023-03-02T04:53:45.233Z,36.70
2023-03-02T04:54:47.504Z,36.43
2023-03-02T04:55:49.529Z,35.87
2023-03-02T04:56:52.394Z,35.80
2023-03-02T04:57:54.363Z,35.83
2023-03-02T04:58:57.023Z,36.50
2023-03-02T04:59:58.989Z,36.83
2023-03-02T05:01:02.693Z,34.48
2023-03-02T05:02:05.070Z,36.02
2023-03-02T05:03:07.456Z,35.83
2023-03-02T05:04:09.230Z,35.85
2023-03-02T05:05:20.407Z,36.58
2023-03-02T05:06:24.552Z,37.40
2023-03-02T05:07:26.468Z,36.48
2023-03-02T05:08:28.783Z,35.03
2023-03-02T05:09:31.004Z,36.00
2023-03-02T05:10:32.827Z,36.25
2023-03-02T05:11:34.738Z,37.77
2023-03-02T05:13:00.205Z,39.33
2023-03-02T05:14:04.563Z,38.73
2023-03-02T05:15:06.894Z,37.15
2023-03-02T05:16:08.740Z,37.88
2023-03-02T05:17:10.809Z,37.32
2023-03-02T05:18:13.194Z,37.07
2023-03-02T05:19:15.259Z,35.70
2023-03-02T05:20:18.086Z,36.75
2023-03-02T05:21:21.573Z,37.35
2023-03-02T05:22:23.496Z,36.82
2023-03-02T05:23:25.944Z,36.78
2023-03-02T05:24:27.834Z,36.87
2023-03-02T05:25:32.065Z,38.50
2023-03-02T05:26:34.288Z,41.35
2023-03-02T05:27:36.902Z,41.70
2023-03-02T05:28:39.709Z,40.58
2023-03-02T05:29:41.642Z,40.25
2023-03-02T05:30:43.838Z,38.67
2023-03-02T05:31:46.979Z,38.38
2023-03-02T05:32:49.514Z,38.50
2023-03-02T05:33:51.399Z,39.37
2023-03-02T05:34:53.488Z,39.20
2023-03-02T05:35:55.371Z,45.03
2023-03-02T05:36:58.210Z,47.12
2023-03-02T05:38:00.043Z,53.75
2023-03-02T05:39:02.143Z,50.48
2023-03-02T05:40:06.542Z,44.62
2023-03-02T05:41:12.738Z,40.18
2023-03-02T05:42:14.569Z,38.62
2023-03-02T05:43:19.849Z,38.62
2023-03-02T05:44:21.842Z,38.93
2023-03-02T05:45:35.642Z,38.82
2023-03-02T05:46:38.013Z,39.53
2023-03-02T05:47:40.341Z,39.12
2023-03-02T05:48:43.956Z,39.75
2023-03-02T05:49:45.719Z,38.70
2023-03-02T05:50:47.643Z,38.03
2023-03-02T05:51:49.421Z,39.88
2023-03-02T05:52:51.240Z,37.90
2023-03-02T05:53:53.102Z,36.78
2023-03-02T05:54:54.999Z,39.03
2023-03-02T05:55:56.913Z,39.58
2023-03-02T05:56:59.140Z,39.70
2023-03-02T05:58:01.121Z,40.23
2023-03-02T05:59:03.019Z,39.25
2023-03-02T06:00:05.990Z,38.47
2023-03-02T06:01:18.497Z,37.15
2023-03-02T06:02:20.342Z,39.02
2023-03-02T06:03:22.320Z,40.43
2023-03-02T06:04:25.417Z,42.03
2023-03-02T06:05:27.204Z,39.38
2023-03-02T06:06:29.635Z,38.80
2023-03-02T06:07:31.901Z,38.22
2023-03-02T06:08:35.209Z,39.85
2023-03-02T06:09:38.998Z,39.42
2023-03-02T06:10:41.248Z,42.37
2023-03-02T06:11:43.122Z,40.75
2023-03-02T06:12:45.007Z,39.87
2023-03-02T06:13:46.781Z,38.73
2023-03-02T06:14:48.559Z,36.98
2023-03-02T06:15:50.382Z,37.68
2023-03-02T06:16:52.278Z,37.88
2023-03-02T06:17:54.176Z,38.20
2023-03-02T06:18:56.034Z,37.83
2023-03-02T06:19:57.862Z,41.02
2023-03-02T06:21:00.030Z,40.93
2023-03-02T06:22:02.443Z,41.63
2023-03-02T06:23:04.286Z,40.53
2023-03-02T06:24:06.311Z,42.92
2023-03-02T06:25:12.869Z,41.42
2023-03-02T06:26:14.674Z,40.42
2023-03-02T06:27:16.902Z,39.27
2023-03-02T06:28:22.073Z,39.90
2023-03-02T06:29:24.045Z,37.22
2023-03-02T06:30:27.599Z,39.73
2023-03-02T06:31:29.608Z,43.92
2023-03-02T06:32:34.229Z,40.43
2023-03-02T06:33:36.051Z,40.33
2023-03-02T06:34:37.847Z,37.98
2023-03-02T06:35:39.750Z,38.90
2023-03-02T06:36:41.874Z,37.27
2023-03-02T06:37:44.545Z,38.48
2023-03-02T06:38:46.533Z,36.85
2023-03-02T06:39:48.346Z,36.65
2023-03-02T06:40:50.245Z,37.53
2023-03-02T06:41:52.266Z,38.35
2023-03-02T06:42:54.068Z,37.67
2023-03-02T06:43:55.950Z,36.43
2023-03-02T06:44:57.873Z,35.85
2023-03-02T06:46:00.893Z,35.72
2023-03-02T06:47:02.800Z,34.62
2023-03-02T06:48:05.553Z,36.12
2023-03-02T06:49:08.092Z,37.85
2023-03-02T06:50:10.777Z,38.28
2023-03-02T06:51:13.305Z,36.73
2023-03-02T06:52:15.710Z,38.18
2023-03-02T06:53:20.323Z,35.97
2023-03-02T06:54:24.087Z,34.78
2023-03-02T06:55:26.399Z,35.42
2023-03-02T06:56:28.354Z,34.80
2023-03-02T06:57:33.983Z,33.20
2023-03-02T06:58:37.643Z,35.30
2023-03-02T06:59:39.458Z,34.38
2023-03-02T07:00:41.451Z,34.65
2023-03-02T07:01:43.472Z,34.87
2023-03-02T07:02:45.483Z,33.88
2023-03-02T07:03:49.023Z,33.65
2023-03-02T07:04:50.865Z,34.43
2023-03-02T07:05:58.203Z,35.17
2023-03-02T07:07:03.127Z,34.40
2023-03-02T07:08:10.962Z,32.02
2023-03-02T07:09:12.912Z,32.27
2023-03-02T07:10:15.435Z,32.40
2023-03-02T07:11:17.938Z,33.67
2023-03-02T07:12:20.257Z,32.30
2023-03-02T07:13:22.355Z,31.92
2023-03-02T07:14:24.351Z,31.73
2023-03-02T07:15:29.387Z,32.20
2023-03-02T07:16:33.009Z,31.40
2023-03-02T07:17:34.982Z,31.55
2023-03-02T07:18:40.560Z,32.42
2023-03-02T07:19:42.712Z,31.28
2023-03-02T07:20:44.818Z,30.15
2023-03-02T07:21:48.838Z,29.65
2023-03-02T07:22:50.817Z,28.78
2023-03-02T07:23:53.339Z,29.48
2023-03-02T07:24:58.063Z,30.15
2023-03-02T07:26:00.319Z,30.45
2023-03-02T07:27:02.125Z,29.65
2023-03-02T07:28:04.377Z,30.32
2023-03-02T07:29:06.742Z,30.03
2023-03-02T07:30:09.516Z,29.93
2023-03-02T07:31:12.157Z,30.82
2023-03-02T07:32:14.288Z,29.33
2023-03-02T07:33:16.607Z,29.75
2023-03-02T07:34:19.928Z,29.87
2023-03-02T07:35:21.920Z,30.50
2023-03-02T07:36:23.882Z,28.93
2023-03-02T07:37:26.102Z,28.27
2023-03-02T07:38:28.814Z,29.53
2023-03-02T07:39:30.815Z,28.53
2023-03-02T07:40:34.049Z,29.28
2023-03-02T07:41:36.227Z,28.37
2023-03-02T07:42:39.025Z,29.62
2023-03-02T07:43:41.132Z,29.32
2023-03-02T07:44:43.288Z,30.42
2023-03-02T07:45:45.402Z,29.62
2023-03-02T07:46:55.024Z,29.47
2023-03-02T07:47:57.090Z,28.55
2023-03-02T07:49:02.367Z,29.13
2023-03-02T07:50:04.827Z,27.93
2023-03-02T07:51:13.281Z,26.02
2023-03-02T07:52:15.433Z,26.07
2023-03-02T07:53:17.609Z,26.15
2023-03-02T07:54:19.658Z,26.40
2023-03-02T07:55:21.818Z,26.72
2023-03-02T07:56:26.678Z,27.05
2023-03-02T07:57:28.629Z,26.50
2023-03-02T07:58:32.480Z,26.05
2023-03-02T07:59:34.368Z,27.07
2023-03-02T08:00:36.820Z,27.20
2023-03-02T08:01:39.031Z,26.43
2023-03-02T08:02:41.861Z,27.27
2023-03-02T08:03:43.933Z,25.70
2023-03-02T08:04:46.394Z,25.93
2023-03-02T08:05:48.296Z,24.42
2023-03-02T08:06:50.405Z,25.80
2023-03-02T08:07:52.359Z,24.92
2023-03-02T08:08:54.882Z,25.68
2023-03-02T08:09:58.106Z,25.35
2023-03-02T08:11:11.267Z,26.02
2023-03-02T08:12:13.154Z,26.87
2023-03-02T08:13:17.992Z,25.67
2023-03-02T08:14:20.614Z,26.68
2023-03-02T08:15:23.526Z,27.20
2023-03-02T08:16:26.516Z,27.27
2023-03-02T08:17:28.914Z,26.55
2023-03-02T08:18:32.657Z,26.68
2023-03-02T08:19:34.817Z,26.55
2023-03-02T08:20:37.636Z,25.72
2023-03-02T08:21:39.748Z,27.62
2023-03-02T08:22:41.645Z,28.72
2023-03-02T08:23:44.197Z,28.62
2023-03-02T08:24:46.065Z,29.47
2023-03-02T08:25:47.954Z,28.20
2023-03-02T08:26:49.816Z,29.00
2023-03-02T08:27:51.951Z,27.38
2023-03-02T08:28:55.911Z,27.92
2023-03-02T08:29:58.278Z,27.15
2023-03-02T08:31:08.238Z,28.22
2023-03-02T08:32:12.430Z,28.25
2023-03-02T08:33:14.839Z,27.55
2023-03-02T08:34:16.790Z,28.95
2023-03-02T08:35:18.803Z,29.45
2023-03-02T08:36:22.661Z,28.23
2023-03-02T08:37:24.591Z,28.45
2023-03-02T08:38:27.534Z,29.02
2023-03-02T08:39:31.314Z,28.32
2023-03-02T08:40:36.274Z,29.25
2023-03-02T08:41:38.357Z,28.78
2023-03-02T08:42:40.326Z,29.25
2023-03-02T08:43:42.445Z,28.85
2023-03-02T08:44:50.242Z,29.07
2023-03-02T08:45:58.163Z,28.57
2023-03-02T08:47:07.977Z,28.53
2023-03-02T08:48:12.586Z,30.20
2023-03-02T08:49:18.521Z,27.97
2023-03-02T08:50:20.977Z,28.15
2023-03-02T08:51:25.817Z,28.33
2023-03-02T08:52:27.729Z,26.75
2023-03-02T08:53:32.688Z,26.42
2023-03-02T08:54:34.733Z,26.43
2023-03-02T08:55:37.342Z,28.20
2023-03-02T08:56:40.101Z,29.55
2023-03-02T08:57:41.940Z,27.88
2023-03-02T08:58:45.789Z,27.55
2023-03-02T08:59:47.592Z,28.32
2023-03-02T09:00:50.348Z,27.60
2023-03-02T09:01:52.853Z,26.98
2023-03-02T09:02:54.727Z,27.95
2023-03-02T09:03:59.449Z,27.77
2023-03-02T09:05:01.315Z,29.13
2023-03-02T09:06:03.173Z,28.05
2023-03-02T09:07:05.077Z,27.83
2023-03-02T09:08:07.494Z,28.45
2023-03-02T09:09:12.001Z,28.78
2023-03-02T09:10:13.817Z,30.23
2023-03-02T09:11:17.709Z,29.48
2023-03-02T09:12:19.720Z,30.17
2023-03-02T09:13:21.797Z,29.50
2023-03-02T09:14:25.209Z,29.37
2023-03-02T09:15:27.693Z,28.88
2023-03-02T09:16:30.255Z,28.97
2023-03-02T09:17:32.115Z,29.08
2023-03-02T09:18:34.976Z,29.15
2023-03-02T09:19:44.318Z,29.67
2023-03-02T09:20:56.908Z,30.08
2023-03-02T09:21:59.571Z,29.05
2023-03-02T09:23:01.647Z,29.20
2023-03-02T09:24:03.714Z,29.48
2023-03-02T09:25:06.417Z,30.00
2023-03-02T09:26:08.798Z,28.22
2023-03-02T09:27:10.695Z,29.63
2023-03-02T09:28:15.188Z,29.90
2023-03-02T09:29:17.249Z,29.27
2023-03-02T09:30:19.108Z,28.95
2023-03-02T09:31:23.411Z,29.20
2023-03-02T09:32:25.569Z,31.18
2023-03-02T09:33:28.842Z,30.32
2023-03-02T09:34:30.685Z,29.78
2023-03-02T09:35:32.710Z,31.00
2023-03-02T09:36:35.072Z,29.08
2023-03-02T09:37:38.900Z,30.03
2023-03-02T09:38:42.380Z,31.28
2023-03-02T09:39:44.275Z,31.65
2023-03-02T09:41:20.286Z,30.77
2023-03-02T09:42:53.454Z,30.35
2023-03-02T09:44:24.581Z,30.20
2023-03-02T09:45:40.482Z,30.02
2023-03-02T09:47:04.395Z,29.38
2023-03-02T09:48:23.535Z,26.43
2023-03-02T09:49:43.602Z,29.82
2023-03-02T09:51:02.192Z,29.13
2023-03-02T09:52:30.409Z,29.45
2023-03-02T09:54:14.505Z,27.05
2023-03-02T09:55:19.834Z,29.05
2023-03-02T09:56:21.910Z,28.05
2023-03-02T09:57:32.503Z,30.48
2023-03-02T09:58:38.407Z,28.43
2023-03-02T09:59:45.814Z,29.03
2023-03-02T10:00:48.066Z,29.43
2023-03-02T10:02:01.396Z,29.50
2023-03-02T10:03:16.788Z,28.67
2023-03-02T10:04:29.275Z,28.25
2023-03-02T10:05:40.396Z,28.60
2023-03-02T10:06:42.499Z,27.32
2023-03-02T10:07:46.749Z,27.70
2023-03-02T10:08:50.943Z,28.95
2023-03-02T10:09:52.870Z,28.48
2023-03-02T10:11:09.104Z,28.82
2023-03-02T10:12:26.103Z,30.40
2023-03-02T10:13:42.863Z,29.50
2023-03-02T10:14:54.921Z,29.75
2023-03-02T10:16:21.751Z,29.23
2023-03-02T10:17:45.247Z,31.02
2023-03-02T10:19:08.637Z,29.35
2023-03-02T10:20:19.452Z,28.52
2023-03-02T10:21:49.573Z,29.20
2023-03-02T10:22:59.897Z,30.35
2023-03-02T10:24:11.827Z,32.22
2023-03-02T10:25:13.659Z,30.67
2023-03-02T10:26:24.975Z,31.03
2023-03-02T10:27:35.661Z,30.85
2023-03-02T10:28:49.879Z,29.38
2023-03-02T10:30:10.496Z,28.10
2023-03-02T10:31:28.514Z,29.90
2023-03-02T10:32:36.206Z,28.75
2023-03-02T10:33:40.646Z,28.98
2023-03-02T10:34:42.573Z,29.58
2023-03-02T10:35:49.919Z,29.22
2023-03-02T10:36:51.929Z,28.35
2023-03-02T10:38:00.389Z,27.50
2023-03-02T10:39:06.525Z,28.92
2023-03-02T10:40:31.428Z,28.53
2023-03-02T10:41:41.181Z,26.48
2023-03-02T10:42:43.398Z,29.57
2023-03-02T10:43:47.869Z,29.27
2023-03-02T10:44:52.993Z,28.90
2023-03-02T10:46:14.110Z,29.40
2023-03-02T10:47:33.713Z,28.12
2023-03-02T10:48:57.579Z,29.33
2023-03-02T10:49:59.577Z,29.77
2023-03-02T10:51:01.407Z,30.07
2023-03-02T10:52:15.268Z,31.22
2023-03-02T10:53:18.921Z,30.35
2023-03-02T10:54:20.991Z,30.32
2023-03-02T10:55:23.043Z,29.28
2023-03-02T10:56:25.020Z,29.08
2023-03-02T10:57:36.879Z,27.80
2023-03-02T10:58:38.865Z,28.45
2023-03-02T10:59:44.811Z,29.20
2023-03-02T11:01:13.762Z,28.45
2023-03-02T11:02:23.603Z,26.92
2023-03-02T11:03:25.753Z,29.40
2023-03-02T11:04:28.079Z,28.47
2023-03-02T11:05:39.107Z,28.53
2023-03-02T11:06:41.029Z,29.45
2023-03-02T11:08:05.546Z,27.95
2023-03-02T11:09:07.986Z,26.28
2023-03-02T11:10:21.366Z,25.47
2023-03-02T11:11:25.117Z,29.40
2023-03-02T11:12:28.148Z,28.30
2023-03-02T11:13:33.221Z,27.78
2023-03-02T11:14:35.112Z,25.43
2023-03-02T11:15:48.417Z,26.42
2023-03-02T11:16:52.130Z,27.80
2023-03-02T11:18:21.259Z,27.40
2023-03-02T11:19:35.171Z,28.53
2023-03-02T11:20:43.207Z,30.15
2023-03-02T11:21:58.003Z,28.50
2023-03-02T11:23:13.113Z,28.85
2023-03-02T11:24:26.285Z,28.75
2023-03-02T11:25:40.775Z,25.43
2023-03-02T11:27:03.007Z,23.68
2023-03-02T11:28:31.893Z,26.75
2023-03-02T11:29:49.148Z,25.93
2023-03-02T11:30:53.996Z,26.40
2023-03-02T11:32:12.381Z,27.02
2023-03-02T11:33:33.196Z,28.80
2023-03-02T11:34:46.851Z,27.80
2023-03-02T11:35:58.462Z,28.72
2023-03-02T11:37:16.733Z,27.30
2023-03-02T11:38:29.188Z,27.10
2023-03-02T11:40:09.218Z,26.53
2023-03-02T11:41:28.493Z,25.72
2023-03-02T11:42:40.039Z,24.95
2023-03-02T11:43:42.050Z,24.15
2023-03-02T11:44:44.615Z,26.40
2023-03-02T11:45:49.074Z,25.02
2023-03-02T11:46:59.049Z,25.93
2023-03-02T11:48:09.236Z,26.85
2023-03-02T11:49:20.227Z,26.15
2023-03-02T11:50:23.047Z,27.62
2023-03-02T11:51:30.049Z,29.62
2023-03-02T11:52:39.405Z,29.20
2023-03-02T11:53:54.342Z,27.07
2023-03-02T11:55:16.493Z,26.78
2023-03-02T11:56:18.693Z,27.15
2023-03-02T11:57:48.563Z,28.30
2023-03-02T11:58:56.879Z,28.55
2023-03-02T11:59:59.642Z,29.22
2023-03-02T12:01:02.419Z,29.42
2023-03-02T12:02:04.690Z,28.73
2023-03-02T12:03:15.612Z,29.63
2023-03-02T12:04:32.458Z,29.43
2023-03-02T12:05:37.507Z,28.08
2023-03-02T12:06:42.093Z,26.85
2023-03-02T12:07:44.592Z,26.25
2023-03-02T12:08:49.780Z,27.43
2023-03-02T12:10:24.051Z,25.85
2023-03-02T12:11:36.202Z,25.77
2023-03-02T12:12:48.478Z,26.77
2023-03-02T12:13:50.285Z,26.55
2023-03-02T12:14:52.653Z,26.50
2023-03-02T12:15:56.510Z,28.62
2023-03-02T12:17:19.943Z,29.17
2023-03-02T12:18:25.436Z,27.40
2023-03-02T12:19:41.309Z,27.90
2023-03-02T12:20:43.753Z,26.48
2023-03-02T12:22:05.704Z,26.32
2023-03-02T12:23:10.359Z,26.35
2023-03-02T12:24:30.089Z,25.68
2023-03-02T12:25:42.417Z,26.20
2023-03-02T12:26:44.329Z,25.50
2023-03-02T12:27:51.660Z,26.50
2023-03-02T12:28:57.789Z,24.52
2023-03-02T12:30:26.534Z,24.57
2023-03-02T12:31:43.913Z,23.48
2023-03-02T12:33:03.997Z,23.48
2023-03-02T12:34:21.235Z,24.63
2023-03-02T12:35:24.721Z,24.55
2023-03-02T12:36:31.980Z,24.45
2023-03-02T12:37:47.454Z,24.83
2023-03-02T12:39:12.303Z,23.57
2023-03-02T12:40:47.519Z,23.98
2023-03-02T12:42:09.473Z,24.12
2023-03-02T12:43:33.578Z,22.93
2023-03-02T12:45:12.084Z,22.93
2023-03-02T12:46:26.504Z,23.45
2023-03-02T12:47:30.034Z,24.83
2023-03-02T12:48:55.096Z,25.40
2023-03-02T12:50:14.509Z,24.87
2023-03-02T12:51:24.420Z,24.37
2023-03-02T12:52:30.632Z,26.37
2023-03-02T12:53:32.682Z,24.48
2023-03-02T12:54:34.895Z,24.68
2023-03-02T12:55:38.811Z,24.40
2023-03-02T12:56:41.045Z,24.73
2023-03-02T12:57:55.614Z,24.63
2023-03-02T12:58:59.490Z,23.95
2023-03-02T13:00:02.429Z,23.82
2023-03-02T13:01:06.120Z,23.25
2023-03-02T13:02:17.045Z,24.62
2023-03-02T13:03:18.937Z,23.63
2023-03-02T13:04:26.071Z,22.45
2023-03-02T13:05:33.434Z,22.75
2023-03-02T13:06:39.013Z,21.90
2023-03-02T13:07:45.162Z,22.42
2023-03-02T13:08:51.391Z,22.38
2023-03-02T13:09:56.935Z,22.15
2023-03-02T13:11:01.664Z,22.40
2023-03-02T13:12:03.576Z,22.88
2023-03-02T13:13:27.050Z,24.08
2023-03-02T13:14:29.271Z,23.50
2023-03-02T13:15:31.055Z,23.15
2023-03-02T13:16:36.739Z,22.60
2023-03-02T13:17:39.007Z,23.65
2023-03-02T13:18:41.932Z,22.93
2023-03-02T13:19:43.823Z,22.73
2023-03-02T13:20:46.026Z,22.37
2023-03-02T13:21:48.377Z,21.92
2023-03-02T13:22:50.787Z,21.75
2023-03-02T13:23:52.898Z,21.65
2023-03-02T13:25:02.177Z,22.65
2023-03-02T13:26:05.807Z,22.92
2023-03-02T13:27:19.517Z,22.68
2023-03-02T13:28:31.140Z,23.02
2023-03-02T13:29:33.948Z,21.30
2023-03-02T13:30:47.716Z,23.72
2023-03-02T13:31:49.896Z,22.18
2023-03-02T13:32:55.990Z,22.32
2023-03-02T13:33:59.355Z,24.53
2023-03-02T13:35:04.955Z,23.43
2023-03-02T13:36:07.349Z,23.67
2023-03-02T13:37:20.709Z,24.78
2023-03-02T13:38:30.417Z,24.43
2023-03-02T13:39:32.327Z,24.42
2023-03-02T13:40:40.041Z,23.17
2023-03-02T13:41:55.658Z,22.37
2023-03-02T13:42:57.515Z,23.02
2023-03-02T13:44:21.521Z,22.40
2023-03-02T13:45:26.276Z,22.22
2023-03-02T13:46:35.062Z,22.53
2023-03-02T13:47:37.389Z,22.60
2023-03-02T13:48:40.669Z,23.25
2023-03-02T13:49:42.582Z,22.07
2023-03-02T13:50:52.837Z,22.13
2023-03-02T13:52:19.460Z,21.52
2023-03-02T13:53:21.352Z,22.55
2023-03-02T13:54:28.912Z,23.22
2023-03-02T13:55:30.815Z,22.22
2023-03-02T13:56:38.118Z,23.42
2023-03-02T13:57:41.701Z,23.28
2023-03-02T13:58:45.399Z,23.15
2023-03-02T13:59:48.143Z,22.73
2023-03-02T14:00:51.899Z,22.65
2023-03-02T14:01:53.872Z,22.17
2023-03-02T14:02:55.698Z,22.82
2023-03-02T14:03:59.288Z,22.30
2023-03-02T14:05:01.212Z,23.25
2023-03-02T14:06:03.245Z,23.23
2023-03-02T14:07:05.025Z,22.87